sensor_id;sensor_type;location;lat;lon;timestamp;P1;durP1;ratioP1;P2;durP2;ratioP2
63555;SDS011;49700;48.072;7.800;2024-01-11T00:02:21;30.13;;;18.30;;
63555;SDS011;49700;48.072;7.800;2024-01-11T00:04:47;36.27;;;15.20;;
63555;SDS011;49700;48.072;7.800;2024-01-11T00:07:12;28.10;;;15.93;;
63555;SDS011;49700;48.072;7.800;2024-01-11T00:09:38;24.67;;;16.07;;
63555;SDS011;49700;48.072;7.800;2024-01-11T00:12:05;22.58;;;16.95;;
63555;SDS011;49700;48.072;7.800;2024-01-11T00:14:31;29.77;;;16.13;;
63555;SDS011;49700;48.072;7.800;2024-01-11T00:16:56;27.47;;;14.37;;
63555;SDS011;49700;48.072;7.800;2024-01-11T00:19:21;35.80;;;16.53;;
63555;SDS011;49700;48.072;7.800;2024-01-11T00:21:47;31.77;;;16.77;;
63555;SDS011;49700;48.072;7.800;2024-01-11T00:24:12;24.57;;;15.47;;
63555;SDS011;49700;48.072;7.800;2024-01-11T00:26:38;23.30;;;14.13;;
63555;SDS011;49700;48.072;7.800;2024-01-11T00:29:03;22.10;;;15.97;;
63555;SDS011;49700;48.072;7.800;2024-01-11T00:31:29;24.50;;;15.60;;
63555;SDS011;49700;48.072;7.800;2024-01-11T00:33:54;24.40;;;16.03;;
63555;SDS011;49700;48.072;7.800;2024-01-11T00:36:20;23.13;;;14.03;;
63555;SDS011;49700;48.072;7.800;2024-01-11T00:38:45;31.43;;;21.70;;
63555;SDS011;49700;48.072;7.800;2024-01-11T00:41:11;24.83;;;16.77;;
63555;SDS011;49700;48.072;7.800;2024-01-11T00:43:36;22.93;;;17.10;;
63555;SDS011;49700;48.072;7.800;2024-01-11T00:46:02;26.93;;;16.03;;
63555;SDS011;49700;48.072;7.800;2024-01-11T00:48:27;32.50;;;16.77;;
63555;SDS011;49700;48.072;7.800;2024-01-11T00:50:53;26.10;;;15.07;;
63555;SDS011;49700;48.072;7.800;2024-01-11T00:53:18;28.20;;;14.90;;
63555;SDS011;49700;48.072;7.800;2024-01-11T00:55:43;27.53;;;16.97;;
63555;SDS011;49700;48.072;7.800;2024-01-11T00:58:09;22.03;;;15.30;;
63555;SDS011;49700;48.072;7.800;2024-01-11T01:00:34;17.83;;;12.43;;
63555;SDS011;49700;48.072;7.800;2024-01-11T01:02:59;14.53;;;12.87;;
63555;SDS011;49700;48.072;7.800;2024-01-11T01:05:25;27.80;;;12.63;;
63555;SDS011;49700;48.072;7.800;2024-01-11T01:07:50;28.43;;;15.37;;
63555;SDS011;49700;48.072;7.800;2024-01-11T01:10:16;23.27;;;15.00;;
63555;SDS011;49700;48.072;7.800;2024-01-11T01:12:41;27.53;;;14.60;;
63555;SDS011;49700;48.072;7.800;2024-01-11T01:15:07;32.77;;;16.77;;
63555;SDS011;49700;48.072;7.800;2024-01-11T01:17:32;22.07;;;14.43;;
63555;SDS011;49700;48.072;7.800;2024-01-11T01:19:58;21.70;;;14.17;;
63555;SDS011;49700;48.072;7.800;2024-01-11T01:22:23;20.93;;;16.70;;
63555;SDS011;49700;48.072;7.800;2024-01-11T01:24:48;18.83;;;12.87;;
63555;SDS011;49700;48.072;7.800;2024-01-11T01:27:14;23.30;;;14.13;;
63555;SDS011;49700;48.072;7.800;2024-01-11T01:29:39;22.47;;;13.17;;
63555;SDS011;49700;48.072;7.800;2024-01-11T01:32:05;21.47;;;12.87;;
63555;SDS011;49700;48.072;7.800;2024-01-11T01:34:30;26.50;;;14.17;;
63555;SDS011;49700;48.072;7.800;2024-01-11T01:36:55;21.27;;;14.83;;
63555;SDS011;49700;48.072;7.800;2024-01-11T01:39:21;28.53;;;20.30;;
63555;SDS011;49700;48.072;7.800;2024-01-11T01:41:46;23.43;;;16.53;;
63555;SDS011;49700;48.072;7.800;2024-01-11T01:44:11;24.47;;;12.83;;
63555;SDS011;49700;48.072;7.800;2024-01-11T01:46:37;25.17;;;14.67;;
63555;SDS011;49700;48.072;7.800;2024-01-11T01:49:03;18.85;;;12.55;;
63555;SDS011;49700;48.072;7.800;2024-01-11T01:51:30;15.82;;;12.23;;
63555;SDS011;49700;48.072;7.800;2024-01-11T01:53:57;31.42;;;19.00;;
63555;SDS011;49700;48.072;7.800;2024-01-11T01:56:23;26.40;;;15.38;;
63555;SDS011;49700;48.072;7.800;2024-01-11T01:58:50;29.27;;;16.77;;
63555;SDS011;49700;48.072;7.800;2024-01-11T02:01:17;24.45;;;15.88;;
63555;SDS011;49700;48.072;7.800;2024-01-11T02:03:45;19.23;;;12.85;;
63555;SDS011;49700;48.072;7.800;2024-01-11T02:06:11;28.55;;;17.45;;
63555;SDS011;49700;48.072;7.800;2024-01-11T02:08:39;31.67;;;21.30;;
63555;SDS011;49700;48.072;7.800;2024-01-11T02:11:07;21.02;;;13.93;;
63555;SDS011;49700;48.072;7.800;2024-01-11T02:13:33;28.10;;;17.40;;
63555;SDS011;49700;48.072;7.800;2024-01-11T02:15:58;26.30;;;14.80;;
63555;SDS011;49700;48.072;7.800;2024-01-11T02:18:24;23.67;;;14.07;;
63555;SDS011;49700;48.072;7.800;2024-01-11T02:20:49;21.30;;;13.67;;
63555;SDS011;49700;48.072;7.800;2024-01-11T02:23:17;24.93;;;12.70;;
63555;SDS011;49700;48.072;7.800;2024-01-11T02:25:44;27.10;;;14.50;;
63555;SDS011;49700;48.072;7.800;2024-01-11T02:28:10;23.00;;;15.40;;
63555;SDS011;49700;48.072;7.800;2024-01-11T02:30:36;34.05;;;18.00;;
63555;SDS011;49700;48.072;7.800;2024-01-11T02:33:02;24.10;;;13.80;;
63555;SDS011;49700;48.072;7.800;2024-01-11T02:35:29;27.50;;;14.75;;
63555;SDS011;49700;48.072;7.800;2024-01-11T02:37:56;24.08;;;15.32;;
63555;SDS011;49700;48.072;7.800;2024-01-11T02:40:22;23.17;;;14.57;;
63555;SDS011;49700;48.072;7.800;2024-01-11T02:42:48;22.50;;;13.60;;
63555;SDS011;49700;48.072;7.800;2024-01-11T02:45:13;29.57;;;14.03;;
63555;SDS011;49700;48.072;7.800;2024-01-11T02:47:39;25.00;;;14.27;;
63555;SDS011;49700;48.072;7.800;2024-01-11T02:50:07;24.83;;;14.17;;
63555;SDS011;49700;48.072;7.800;2024-01-11T02:52:33;21.80;;;12.85;;
63555;SDS011;49700;48.072;7.800;2024-01-11T02:54:59;22.73;;;12.15;;
63555;SDS011;49700;48.072;7.800;2024-01-11T02:57:24;20.70;;;11.87;;
63555;SDS011;49700;48.072;7.800;2024-01-11T02:59:50;22.50;;;12.67;;
63555;SDS011;49700;48.072;7.800;2024-01-11T03:02:16;25.17;;;14.02;;
63555;SDS011;49700;48.072;7.800;2024-01-11T03:04:41;29.67;;;16.80;;
63555;SDS011;49700;48.072;7.800;2024-01-11T03:07:07;24.80;;;14.73;;
63555;SDS011;49700;48.072;7.800;2024-01-11T03:09:32;24.77;;;15.10;;
63555;SDS011;49700;48.072;7.800;2024-01-11T03:11:59;19.48;;;12.32;;
63555;SDS011;49700;48.072;7.800;2024-01-11T03:14:24;23.87;;;13.43;;
63555;SDS011;49700;48.072;7.800;2024-01-11T03:16:50;20.73;;;12.93;;
63555;SDS011;49700;48.072;7.800;2024-01-11T03:19:15;27.83;;;15.63;;
63555;SDS011;49700;48.072;7.800;2024-01-11T03:21:42;15.30;;;11.03;;
63555;SDS011;49700;48.072;7.800;2024-01-11T03:24:08;13.60;;;10.35;;
63555;SDS011;49700;48.072;7.800;2024-01-11T03:26:34;17.07;;;11.67;;
63555;SDS011;49700;48.072;7.800;2024-01-11T03:28:59;22.70;;;14.30;;
63555;SDS011;49700;48.072;7.800;2024-01-11T03:31:24;20.33;;;12.03;;
63555;SDS011;49700;48.072;7.800;2024-01-11T03:33:50;17.77;;;12.10;;
63555;SDS011;49700;48.072;7.800;2024-01-11T03:36:22;20.27;;;12.05;;
63555;SDS011;49700;48.072;7.800;2024-01-11T03:38:49;27.98;;;17.45;;
63555;SDS011;49700;48.072;7.800;2024-01-11T03:41:15;17.70;;;11.27;;
63555;SDS011;49700;48.072;7.800;2024-01-11T03:43:41;21.43;;;13.30;;
63555;SDS011;49700;48.072;7.800;2024-01-11T03:46:06;20.00;;;11.83;;
63555;SDS011;49700;48.072;7.800;2024-01-11T03:48:31;17.83;;;12.87;;
63555;SDS011;49700;48.072;7.800;2024-01-11T03:50:57;16.70;;;9.77;;
63555;SDS011;49700;48.072;7.800;2024-01-11T03:53:22;17.90;;;13.40;;
63555;SDS011;49700;48.072;7.800;2024-01-11T03:55:48;22.17;;;13.40;;
63555;SDS011;49700;48.072;7.800;2024-01-11T03:58:13;23.27;;;11.03;;
63555;SDS011;49700;48.072;7.800;2024-01-11T04:00:39;20.20;;;13.67;;
63555;SDS011;49700;48.072;7.800;2024-01-11T04:03:05;18.80;;;13.87;;
63555;SDS011;49700;48.072;7.800;2024-01-11T04:05:31;22.30;;;11.93;;
63555;SDS011;49700;48.072;7.800;2024-01-11T04:07:57;22.40;;;13.80;;
63555;SDS011;49700;48.072;7.800;2024-01-11T04:10:22;17.57;;;13.00;;
63555;SDS011;49700;48.072;7.800;2024-01-11T04:12:48;18.63;;;11.00;;
63555;SDS011;49700;48.072;7.800;2024-01-11T04:15:13;15.70;;;10.83;;
63555;SDS011;49700;48.072;7.800;2024-01-11T04:17:39;17.97;;;13.20;;
63555;SDS011;49700;48.072;7.800;2024-01-11T04:20:05;30.57;;;11.97;;
63555;SDS011;49700;48.072;7.800;2024-01-11T04:22:31;16.17;;;12.90;;
63555;SDS011;49700;48.072;7.800;2024-01-11T04:24:57;16.77;;;11.47;;
63555;SDS011;49700;48.072;7.800;2024-01-11T04:27:22;21.23;;;13.07;;
63555;SDS011;49700;48.072;7.800;2024-01-11T04:29:48;16.67;;;14.97;;
63555;SDS011;49700;48.072;7.800;2024-01-11T04:32:13;21.50;;;11.30;;
63555;SDS011;49700;48.072;7.800;2024-01-11T04:34:39;23.63;;;14.27;;
63555;SDS011;49700;48.072;7.800;2024-01-11T04:37:04;25.20;;;14.00;;
63555;SDS011;49700;48.072;7.800;2024-01-11T04:39:30;33.30;;;22.37;;
63555;SDS011;49700;48.072;7.800;2024-01-11T04:41:56;30.00;;;15.53;;
63555;SDS011;49700;48.072;7.800;2024-01-11T04:44:21;22.70;;;16.93;;
63555;SDS011;49700;48.072;7.800;2024-01-11T04:46:47;22.23;;;14.37;;
63555;SDS011;49700;48.072;7.800;2024-01-11T04:49:12;21.17;;;14.63;;
63555;SDS011;49700;48.072;7.800;2024-01-11T04:51:38;23.77;;;12.67;;
63555;SDS011;49700;48.072;7.800;2024-01-11T04:54:03;24.00;;;13.77;;
63555;SDS011;49700;48.072;7.800;2024-01-11T04:56:29;25.30;;;14.83;;
63555;SDS011;49700;48.072;7.800;2024-01-11T04:58:54;21.00;;;11.93;;
63555;SDS011;49700;48.072;7.800;2024-01-11T05:01:20;23.23;;;12.40;;
63555;SDS011;49700;48.072;7.800;2024-01-11T05:03:47;26.73;;;13.60;;
63555;SDS011;49700;48.072;7.800;2024-01-11T05:06:19;20.50;;;12.80;;
63555;SDS011;49700;48.072;7.800;2024-01-11T05:08:47;26.17;;;18.65;;
63555;SDS011;49700;48.072;7.800;2024-01-11T05:11:17;24.23;;;15.32;;
63555;SDS011;49700;48.072;7.800;2024-01-11T05:13:49;21.73;;;12.88;;
63555;SDS011;49700;48.072;7.800;2024-01-11T05:16:25;21.35;;;13.82;;
63555;SDS011;49700;48.072;7.800;2024-01-11T05:18:52;26.08;;;12.80;;
63555;SDS011;49700;48.072;7.800;2024-01-11T05:21:19;22.42;;;12.00;;
63555;SDS011;49700;48.072;7.800;2024-01-11T05:23:45;22.60;;;14.00;;
63555;SDS011;49700;48.072;7.800;2024-01-11T05:26:11;20.13;;;10.07;;
63555;SDS011;49700;48.072;7.800;2024-01-11T05:28:37;17.50;;;8.93;;
63555;SDS011;49700;48.072;7.800;2024-01-11T05:31:07;20.10;;;11.23;;
63555;SDS011;49700;48.072;7.800;2024-01-11T05:33:34;21.35;;;10.35;;
63555;SDS011;49700;48.072;7.800;2024-01-11T05:36:00;21.50;;;11.20;;
63555;SDS011;49700;48.072;7.800;2024-01-11T05:38:25;27.45;;;16.02;;
63555;SDS011;49700;48.072;7.800;2024-01-11T05:40:50;25.43;;;14.00;;
63555;SDS011;49700;48.072;7.800;2024-01-11T05:43:16;16.73;;;11.70;;
63555;SDS011;49700;48.072;7.800;2024-01-11T05:45:41;25.17;;;12.27;;
63555;SDS011;49700;48.072;7.800;2024-01-11T05:48:07;23.33;;;13.53;;
63555;SDS011;49700;48.072;7.800;2024-01-11T05:50:32;18.33;;;11.40;;
63555;SDS011;49700;48.072;7.800;2024-01-11T05:52:57;17.70;;;9.37;;
63555;SDS011;49700;48.072;7.800;2024-01-11T05:55:23;16.40;;;10.10;;
63555;SDS011;49700;48.072;7.800;2024-01-11T05:57:48;16.90;;;10.20;;
63555;SDS011;49700;48.072;7.800;2024-01-11T06:00:14;18.17;;;11.43;;
63555;SDS011;49700;48.072;7.800;2024-01-11T06:02:40;18.53;;;11.40;;
63555;SDS011;49700;48.072;7.800;2024-01-11T06:05:08;17.40;;;9.33;;
63555;SDS011;49700;48.072;7.800;2024-01-11T06:07:34;24.85;;;12.07;;
63555;SDS011;49700;48.072;7.800;2024-01-11T06:10:00;21.30;;;11.37;;
63555;SDS011;49700;48.072;7.800;2024-01-11T06:12:27;33.65;;;18.05;;
63555;SDS011;49700;48.072;7.800;2024-01-11T06:14:53;22.53;;;12.03;;
63555;SDS011;49700;48.072;7.800;2024-01-11T06:17:18;12.83;;;11.50;;
63555;SDS011;49700;48.072;7.800;2024-01-11T06:19:44;13.13;;;10.40;;
63555;SDS011;49700;48.072;7.800;2024-01-11T06:22:09;18.37;;;11.07;;
63555;SDS011;49700;48.072;7.800;2024-01-11T06:24:34;15.73;;;10.40;;
63555;SDS011;49700;48.072;7.800;2024-01-11T06:27:00;17.37;;;12.43;;
63555;SDS011;49700;48.072;7.800;2024-01-11T06:29:25;15.67;;;12.17;;
63555;SDS011;49700;48.072;7.800;2024-01-11T06:31:51;19.17;;;11.00;;
63555;SDS011;49700;48.072;7.800;2024-01-11T06:34:16;18.90;;;12.27;;
63555;SDS011;49700;48.072;7.800;2024-01-11T06:36:42;24.10;;;14.20;;
63555;SDS011;49700;48.072;7.800;2024-01-11T06:39:07;29.30;;;19.60;;
63555;SDS011;49700;48.072;7.800;2024-01-11T06:41:33;24.83;;;14.73;;
63555;SDS011;49700;48.072;7.800;2024-01-11T06:43:59;23.13;;;15.13;;
63555;SDS011;49700;48.072;7.800;2024-01-11T06:46:24;21.27;;;13.77;;
63555;SDS011;49700;48.072;7.800;2024-01-11T06:48:50;16.53;;;11.53;;
63555;SDS011;49700;48.072;7.800;2024-01-11T06:51:16;21.07;;;10.67;;
63555;SDS011;49700;48.072;7.800;2024-01-11T06:53:42;21.15;;;10.38;;
63555;SDS011;49700;48.072;7.800;2024-01-11T06:56:17;24.63;;;13.57;;
63555;SDS011;49700;48.072;7.800;2024-01-11T06:58:45;19.30;;;10.27;;
63555;SDS011;49700;48.072;7.800;2024-01-11T07:01:11;20.75;;;13.85;;
63555;SDS011;49700;48.072;7.800;2024-01-11T07:03:38;18.85;;;11.63;;
63555;SDS011;49700;48.072;7.800;2024-01-11T07:06:03;22.75;;;10.63;;
63555;SDS011;49700;48.072;7.800;2024-01-11T07:08:30;35.03;;;18.10;;
63555;SDS011;49700;48.072;7.800;2024-01-11T07:10:56;19.45;;;11.85;;
63555;SDS011;49700;48.072;7.800;2024-01-11T07:13:22;23.95;;;13.77;;
63555;SDS011;49700;48.072;7.800;2024-01-11T07:15:47;20.20;;;11.10;;
63555;SDS011;49700;48.072;7.800;2024-01-11T07:18:13;26.57;;;14.90;;
63555;SDS011;49700;48.072;7.800;2024-01-11T07:20:39;16.13;;;11.65;;
63555;SDS011;49700;48.072;7.800;2024-01-11T07:23:05;23.60;;;11.67;;
63555;SDS011;49700;48.072;7.800;2024-01-11T07:25:30;19.60;;;12.20;;
63555;SDS011;49700;48.072;7.800;2024-01-11T07:27:56;21.85;;;14.13;;
63555;SDS011;49700;48.072;7.800;2024-01-11T07:30:22;28.20;;;14.20;;
63555;SDS011;49700;48.072;7.800;2024-01-11T07:32:47;21.87;;;12.57;;
63555;SDS011;49700;48.072;7.800;2024-01-11T07:35:13;21.60;;;12.90;;
63555;SDS011;49700;48.072;7.800;2024-01-11T07:37:39;17.95;;;12.15;;
63555;SDS011;49700;48.072;7.800;2024-01-11T07:40:07;23.13;;;12.53;;
63555;SDS011;49700;48.072;7.800;2024-01-11T07:42:37;25.88;;;14.60;;
63555;SDS011;49700;48.072;7.800;2024-01-11T07:45:04;22.58;;;13.23;;
63555;SDS011;49700;48.072;7.800;2024-01-11T07:47:30;19.23;;;11.40;;
63555;SDS011;49700;48.072;7.800;2024-01-11T07:49:56;25.80;;;13.60;;
63555;SDS011;49700;48.072;7.800;2024-01-11T07:52:21;21.63;;;11.83;;
63555;SDS011;49700;48.072;7.800;2024-01-11T07:54:47;20.50;;;13.30;;
63555;SDS011;49700;48.072;7.800;2024-01-11T07:57:12;16.77;;;9.80;;
63555;SDS011;49700;48.072;7.800;2024-01-11T07:59:38;23.70;;;12.63;;
63555;SDS011;49700;48.072;7.800;2024-01-11T08:02:04;25.33;;;13.60;;
63555;SDS011;49700;48.072;7.800;2024-01-11T08:04:31;23.40;;;12.70;;
63555;SDS011;49700;48.072;7.800;2024-01-11T08:06:57;30.57;;;17.90;;
63555;SDS011;49700;48.072;7.800;2024-01-11T08:09:24;33.80;;;21.60;;
63555;SDS011;49700;48.072;7.800;2024-01-11T08:11:51;24.50;;;17.10;;
63555;SDS011;49700;48.072;7.800;2024-01-11T08:14:17;15.75;;;13.18;;
63555;SDS011;49700;48.072;7.800;2024-01-11T08:16:43;19.90;;;12.77;;
63555;SDS011;49700;48.072;7.800;2024-01-11T08:19:08;22.93;;;13.27;;
63555;SDS011;49700;48.072;7.800;2024-01-11T08:21:35;17.38;;;13.52;;
63555;SDS011;49700;48.072;7.800;2024-01-11T08:24:01;23.13;;;13.07;;
63555;SDS011;49700;48.072;7.800;2024-01-11T08:26:27;22.63;;;11.32;;
63555;SDS011;49700;48.072;7.800;2024-01-11T08:28:53;27.20;;;16.03;;
63555;SDS011;49700;48.072;7.800;2024-01-11T08:31:19;22.40;;;14.13;;
63555;SDS011;49700;48.072;7.800;2024-01-11T08:33:44;25.30;;;17.00;;
63555;SDS011;49700;48.072;7.800;2024-01-11T08:36:10;33.63;;;20.33;;
63555;SDS011;49700;48.072;7.800;2024-01-11T08:38:36;46.58;;;28.50;;
63555;SDS011;49700;48.072;7.800;2024-01-11T08:41:02;39.70;;;20.13;;
63555;SDS011;49700;48.072;7.800;2024-01-11T08:43:28;30.58;;;16.80;;
63555;SDS011;49700;48.072;7.800;2024-01-11T08:45:54;27.43;;;16.03;;
63555;SDS011;49700;48.072;7.800;2024-01-11T08:48:19;18.17;;;12.53;;
63555;SDS011;49700;48.072;7.800;2024-01-11T08:50:45;23.13;;;14.20;;
63555;SDS011;49700;48.072;7.800;2024-01-11T08:53:10;16.83;;;10.47;;
63555;SDS011;49700;48.072;7.800;2024-01-11T08:55:35;23.90;;;11.60;;
63555;SDS011;49700;48.072;7.800;2024-01-11T08:58:01;14.97;;;11.47;;
63555;SDS011;49700;48.072;7.800;2024-01-11T09:00:26;15.30;;;9.90;;
63555;SDS011;49700;48.072;7.800;2024-01-11T09:02:52;17.60;;;11.27;;
63555;SDS011;49700;48.072;7.800;2024-01-11T09:05:17;14.93;;;8.60;;
63555;SDS011;49700;48.072;7.800;2024-01-11T09:07:43;23.53;;;12.50;;
63555;SDS011;49700;48.072;7.800;2024-01-11T09:10:08;23.70;;;13.00;;
63555;SDS011;49700;48.072;7.800;2024-01-11T09:12:35;13.97;;;10.60;;
63555;SDS011;49700;48.072;7.800;2024-01-11T09:15:01;17.73;;;11.00;;
63555;SDS011;49700;48.072;7.800;2024-01-11T09:17:26;25.57;;;14.90;;
63555;SDS011;49700;48.072;7.800;2024-01-11T09:19:52;20.57;;;12.80;;
63555;SDS011;49700;48.072;7.800;2024-01-11T09:22:17;22.60;;;12.20;;
63555;SDS011;49700;48.072;7.800;2024-01-11T09:24:43;21.77;;;11.70;;
63555;SDS011;49700;48.072;7.800;2024-01-11T09:27:08;17.83;;;13.60;;
63555;SDS011;49700;48.072;7.800;2024-01-11T09:29:33;24.17;;;14.40;;
63555;SDS011;49700;48.072;7.800;2024-01-11T09:31:59;27.50;;;13.33;;
63555;SDS011;49700;48.072;7.800;2024-01-11T09:34:24;20.20;;;13.10;;
63555;SDS011;49700;48.072;7.800;2024-01-11T09:36:50;25.63;;;14.37;;
63555;SDS011;49700;48.072;7.800;2024-01-11T09:39:15;33.40;;;23.27;;
63555;SDS011;49700;48.072;7.800;2024-01-11T09:41:42;25.43;;;18.13;;
63555;SDS011;49700;48.072;7.800;2024-01-11T09:44:16;35.30;;;18.02;;
63555;SDS011;49700;48.072;7.800;2024-01-11T09:46:43;29.23;;;16.63;;
63555;SDS011;49700;48.072;7.800;2024-01-11T09:49:08;24.63;;;14.30;;
63555;SDS011;49700;48.072;7.800;2024-01-11T09:51:35;21.40;;;14.10;;
63555;SDS011;49700;48.072;7.800;2024-01-11T09:54:03;26.10;;;17.15;;
63555;SDS011;49700;48.072;7.800;2024-01-11T09:56:29;25.00;;;16.02;;
63555;SDS011;49700;48.072;7.800;2024-01-11T09:58:55;25.37;;;16.00;;
63555;SDS011;49700;48.072;7.800;2024-01-11T10:01:21;30.00;;;17.33;;
63555;SDS011;49700;48.072;7.800;2024-01-11T10:03:48;27.08;;;15.15;;
63555;SDS011;49700;48.072;7.800;2024-01-11T10:06:14;28.33;;;14.77;;
63555;SDS011;49700;48.072;7.800;2024-01-11T10:08:40;26.90;;;19.27;;
63555;SDS011;49700;48.072;7.800;2024-01-11T10:11:06;39.70;;;19.20;;
63555;SDS011;49700;48.072;7.800;2024-01-11T10:13:32;38.45;;;18.23;;
63555;SDS011;49700;48.072;7.800;2024-01-11T10:16:05;27.83;;;19.37;;
63555;SDS011;49700;48.072;7.800;2024-01-11T10:18:40;31.02;;;16.10;;
63555;SDS011;49700;48.072;7.800;2024-01-11T10:21:07;31.17;;;17.42;;
63555;SDS011;49700;48.072;7.800;2024-01-11T10:23:34;29.58;;;17.55;;
63555;SDS011;49700;48.072;7.800;2024-01-11T10:26:01;20.83;;;14.68;;
63555;SDS011;49700;48.072;7.800;2024-01-11T10:28:27;27.98;;;15.80;;
63555;SDS011;49700;48.072;7.800;2024-01-11T10:30:53;29.13;;;17.80;;
63555;SDS011;49700;48.072;7.800;2024-01-11T10:33:19;31.35;;;19.27;;
63555;SDS011;49700;48.072;7.800;2024-01-11T10:35:49;31.13;;;18.48;;
63555;SDS011;49700;48.072;7.800;2024-01-11T10:38:15;39.35;;;22.88;;
63555;SDS011;49700;48.072;7.800;2024-01-11T10:40:41;31.55;;;19.20;;
63555;SDS011;49700;48.072;7.800;2024-01-11T10:43:08;21.33;;;15.40;;
63555;SDS011;49700;48.072;7.800;2024-01-11T10:45:38;28.85;;;17.00;;
63555;SDS011;49700;48.072;7.800;2024-01-11T10:48:06;30.20;;;19.70;;
63555;SDS011;49700;48.072;7.800;2024-01-11T10:50:38;28.42;;;16.33;;
63555;SDS011;49700;48.072;7.800;2024-01-11T10:55:36;30.02;;;16.55;;
63555;SDS011;49700;48.072;7.800;2024-01-11T10:58:02;23.55;;;16.15;;
63555;SDS011;49700;48.072;7.800;2024-01-11T11:00:29;31.38;;;20.15;;
63555;SDS011;49700;48.072;7.800;2024-01-11T11:02:55;29.92;;;19.00;;
63555;SDS011;49700;48.072;7.800;2024-01-11T11:05:21;21.67;;;16.45;;
63555;SDS011;49700;48.072;7.800;2024-01-11T11:07:51;33.00;;;20.35;;
63555;SDS011;49700;48.072;7.800;2024-01-11T11:10:18;35.72;;;19.17;;
63555;SDS011;49700;48.072;7.800;2024-01-11T11:12:47;29.35;;;17.33;;
63555;SDS011;49700;48.072;7.800;2024-01-11T11:21:08;24.77;;;17.90;;
63555;SDS011;49700;48.072;7.800;2024-01-11T11:23:42;32.38;;;17.70;;
63555;SDS011;49700;48.072;7.800;2024-01-11T11:26:19;33.53;;;20.48;;
63555;SDS011;49700;48.072;7.800;2024-01-11T11:28:52;20.33;;;9.02;;
63555;SDS011;49700;48.072;7.800;2024-01-11T11:38:17;39.55;;;23.13;;
63555;SDS011;49700;48.072;7.800;2024-01-11T11:41:05;30.98;;;21.30;;
63555;SDS011;49700;48.072;7.800;2024-01-11T11:43:51;31.33;;;18.77;;
63555;SDS011;49700;48.072;7.800;2024-01-11T11:46:19;29.85;;;19.30;;
63555;SDS011;49700;48.072;7.800;2024-01-11T11:49:12;23.80;;;17.42;;
63555;SDS011;49700;48.072;7.800;2024-01-11T11:51:39;26.80;;;16.73;;
63555;SDS011;49700;48.072;7.800;2024-01-11T11:54:14;25.75;;;17.05;;
63555;SDS011;49700;48.072;7.800;2024-01-11T11:56:42;34.15;;;21.23;;
63555;SDS011;49700;48.072;7.800;2024-01-11T11:59:11;36.25;;;22.92;;
63555;SDS011;49700;48.072;7.800;2024-01-11T12:01:37;32.13;;;18.73;;
63555;SDS011;49700;48.072;7.800;2024-01-11T12:04:02;36.83;;;20.10;;
63555;SDS011;49700;48.072;7.800;2024-01-11T12:06:28;33.10;;;22.60;;
63555;SDS011;49700;48.072;7.800;2024-01-11T12:08:54;44.90;;;27.83;;
63555;SDS011;49700;48.072;7.800;2024-01-11T12:11:20;28.92;;;19.05;;
63555;SDS011;49700;48.072;7.800;2024-01-11T12:13:47;35.42;;;21.52;;
63555;SDS011;49700;48.072;7.800;2024-01-11T12:16:14;28.25;;;18.88;;
63555;SDS011;49700;48.072;7.800;2024-01-11T12:18:40;33.87;;;21.60;;
63555;SDS011;49700;48.072;7.800;2024-01-11T12:21:06;28.98;;;18.83;;
63555;SDS011;49700;48.072;7.800;2024-01-11T12:23:36;30.00;;;18.08;;
63555;SDS011;49700;48.072;7.800;2024-01-11T12:26:03;28.83;;;20.80;;
63555;SDS011;49700;48.072;7.800;2024-01-11T12:28:33;32.80;;;15.75;;
63555;SDS011;49700;48.072;7.800;2024-01-11T12:30:59;33.92;;;21.42;;
63555;SDS011;49700;48.072;7.800;2024-01-11T12:33:25;39.37;;;19.07;;
63555;SDS011;49700;48.072;7.800;2024-01-11T12:35:52;25.13;;;14.95;;
63555;SDS011;49700;48.072;7.800;2024-01-11T12:38:17;39.40;;;24.55;;
63555;SDS011;49700;48.072;7.800;2024-01-11T12:40:43;34.13;;;20.33;;
63555;SDS011;49700;48.072;7.800;2024-01-11T12:43:11;47.17;;;26.60;;
63555;SDS011;49700;48.072;7.800;2024-01-11T12:45:37;37.27;;;19.77;;
63555;SDS011;49700;48.072;7.800;2024-01-11T12:48:03;46.08;;;21.38;;
63555;SDS011;49700;48.072;7.800;2024-01-11T12:50:32;43.92;;;21.10;;
63555;SDS011;49700;48.072;7.800;2024-01-11T12:55:44;26.05;;;16.92;;
63555;SDS011;49700;48.072;7.800;2024-01-11T12:58:10;37.38;;;19.92;;
63555;SDS011;49700;48.072;7.800;2024-01-11T13:00:36;30.37;;;18.13;;
63555;SDS011;49700;48.072;7.800;2024-01-11T13:03:08;28.00;;;15.10;;
63555;SDS011;49700;48.072;7.800;2024-01-11T13:05:35;39.10;;;18.48;;
63555;SDS011;49700;48.072;7.800;2024-01-11T13:08:02;34.07;;;21.17;;
63555;SDS011;49700;48.072;7.800;2024-01-11T13:10:31;33.78;;;22.90;;
63555;SDS011;49700;48.072;7.800;2024-01-11T13:12:58;35.10;;;20.85;;
63555;SDS011;49700;48.072;7.800;2024-01-11T13:15:23;35.55;;;18.90;;
63555;SDS011;49700;48.072;7.800;2024-01-11T13:17:49;31.90;;;20.00;;
63555;SDS011;49700;48.072;7.800;2024-01-11T13:20:15;27.63;;;15.80;;
63555;SDS011;49700;48.072;7.800;2024-01-11T13:22:40;30.97;;;18.10;;
63555;SDS011;49700;48.072;7.800;2024-01-11T13:25:06;30.40;;;15.20;;
63555;SDS011;49700;48.072;7.800;2024-01-11T13:27:31;23.87;;;14.67;;
63555;SDS011;49700;48.072;7.800;2024-01-11T13:29:57;28.27;;;17.13;;
63555;SDS011;49700;48.072;7.800;2024-01-11T13:32:23;26.38;;;19.05;;
63555;SDS011;49700;48.072;7.800;2024-01-11T13:34:49;23.97;;;16.60;;
63555;SDS011;49700;48.072;7.800;2024-01-11T13:37:18;35.50;;;18.05;;
63555;SDS011;49700;48.072;7.800;2024-01-11T13:39:44;33.60;;;19.35;;
63555;SDS011;49700;48.072;7.800;2024-01-11T13:42:09;31.60;;;20.70;;
63555;SDS011;49700;48.072;7.800;2024-01-11T13:44:36;25.63;;;17.42;;
63555;SDS011;49700;48.072;7.800;2024-01-11T13:47:01;35.13;;;20.30;;
63555;SDS011;49700;48.072;7.800;2024-01-11T13:49:28;28.15;;;17.95;;
63555;SDS011;49700;48.072;7.800;2024-01-11T13:51:53;41.60;;;21.50;;
63555;SDS011;49700;48.072;7.800;2024-01-11T13:54:19;27.93;;;16.43;;
63555;SDS011;49700;48.072;7.800;2024-01-11T13:56:44;24.00;;;15.67;;
63555;SDS011;49700;48.072;7.800;2024-01-11T13:59:09;30.77;;;19.73;;
63555;SDS011;49700;48.072;7.800;2024-01-11T14:01:35;39.20;;;20.77;;
63555;SDS011;49700;48.072;7.800;2024-01-11T14:04:00;23.83;;;14.67;;
63555;SDS011;49700;48.072;7.800;2024-01-11T14:06:26;37.00;;;21.70;;
63555;SDS011;49700;48.072;7.800;2024-01-11T14:08:52;36.55;;;23.73;;
63555;SDS011;49700;48.072;7.800;2024-01-11T14:11:17;33.23;;;19.87;;
63555;SDS011;49700;48.072;7.800;2024-01-11T14:13:44;34.80;;;18.52;;
63555;SDS011;49700;48.072;7.800;2024-01-11T14:16:09;25.60;;;14.17;;
63555;SDS011;49700;48.072;7.800;2024-01-11T14:18:36;26.13;;;16.58;;
63555;SDS011;49700;48.072;7.800;2024-01-11T14:21:02;29.80;;;18.70;;
63555;SDS011;49700;48.072;7.800;2024-01-11T14:23:27;32.67;;;19.07;;
63555;SDS011;49700;48.072;7.800;2024-01-11T14:25:53;33.67;;;18.77;;
63555;SDS011;49700;48.072;7.800;2024-01-11T14:28:20;37.50;;;19.05;;
63555;SDS011;49700;48.072;7.800;2024-01-11T14:30:46;31.27;;;15.67;;
63555;SDS011;49700;48.072;7.800;2024-01-11T14:33:11;32.33;;;20.00;;
63555;SDS011;49700;48.072;7.800;2024-01-11T14:35:36;30.67;;;14.97;;